Waterloo Airport
CYKF : now visible

Airfield :











YOU CAN JOIN US ON...

 
LOGIN :

Register | Disclaimer

   EN    FR    IT 

 









Legend :    VFR   Marginal VFR   IFR   Intensive IFR   Very Intensive IFR
Visi :
Ceiling :
>= 8 km
>= 3000ft
5 to 8 km
1000 to 3000 ft
1500m to 5 km
500 to 1000 ft
800 to 1500m
200 to 500 ft
< 800m
< 200 ft
Symbols :   Thunderstorms  Fog  Heavy snow  Heavy precipitations  Wind > 20 kt






- Airport Elevation : 1054 ft
- IATA code : YKF


CYKF - Waterloo

CURRENT METAR :
  • 072008Z AUTO 13007KT 9SM OVC075 11/02 A2974 RMK SLP078

EXPIRED METARs :
  • 071928Z AUTO 14005KT 9SM -RA FEW034 BKN070 OVC093 11/01 A2977 RMK SLP088
  • 071918Z AUTO 14007KT 9SM FEW070 OVC090 11/01 A2978 RMK SLP090
  • 071900Z AUTO 13006KT 110V180 9SM -RA FEW049 SCT060 BKN075 OVC100 12/02 A2978 RMK SLP093
  • 071820Z AUTO 14009KT 9SM -RA OVC055 13/M01 A2981 RMK PRESFR SLP100 DENSITY ALT 1100FT
  • 071800Z AUTO 17007KT 9SM OVC060 12/M02 A2983 RMK SLP107

TAF TAF CYKF
Valid from the 07 at 20:00 until the 08 at 08:00 UTC


071938Z 0720/0808 14010KT P6SM -SHRA OVC040
TEMPO 0721/0723 OVC020
FM072300 13008KT P6SM -SHRA OVC020
TEMPO 0723/0803 5SM -SHRA BR BKN005 OVC012
FM080300 08008KT 4SM -RA BR OVC006
TEMPO 0803/0806 11/2SM SHRA BR OVC004
FM080600 08008KT 1SM -RA -DZ BR OVC003
TEMPO 0806/0808 3SM -SHRA BR OVC005 RMK FCST BASED ON AUTO OBS. NXT FCST BY 080200Z



MET'MAP, your aeronautical weather chart ! - Copyright ORBIFLY December 2007 - Disclaimer

ORBIFLY MET'MAP TEAM :

Programming & Development : Alexandra Zaïnal
Concept & original design : Baudouin d'Aumeries
Assistance for programming : Marc-Olivier Méhu
Technical & hardware support : Manuel Goepfert

Contact : metmap@orbifly.com




SOURCES & CREDITS :

   NOAA       Earth
Advisory